עמוד ראשי
METAR-TAF:

METAR-TAF

שדות תעופה :

Vandenberg Airport

טמפה, פלורידה, ארצות הברית

קו רוחב: 28-00-50N, קו אורך: 082-20-43W, גובה: 7מטר

תצפית מזג אוויר נוכחית

הדו"ח נערך לפני 34דקות, בשעה 20:15 UTC
רוח 11קשר מכיוון מזרח/צפון-מזרח עם משבים עד 19קשר
טמפרטורת 33 צלסיוס
לחות 53%
לחץ 1015 hPa
ראות: 16.1קילומטר
עננים פזורים בגובה 5000רגל

METAR: KVDF 172015Z AUTO 07011G19KT 10SM SCT050 33/22 A2997 RMK AO2

זמן: 16:49 (20:49 UTC)


TAF: חסר

תצפיות ותחזיות מזג אוויר לגבי יותר מ- 4,000 שדות תעופה ברחבי העולם. דוחות METAR ו- TAF.

התחנות הזמינות מסומנות בנקודות צהובות ואדומות על גבי המפה.

העבר את העכבר לנקודה הצבעונית על מנת לראות את שם התחנה.

לאחר מכן, לחץ כדי לראות את תוכן ואת תחזיות מזג האוויר.

כדי לשנות את המפה: לחץ על הכפתורים הירוקים עם הפלוס השחור כדי להתקרב; על הכפתור הירוק עם המקף כדי להתרחק; או בחיצים הירוקים למפות סמוכות.


METAR-TAF: